createdAt,value
2023-07-24T00:01:31.695Z,22.70
2023-07-24T00:04:00.210Z,22.70
2023-07-24T00:06:35.531Z,22.70
2023-07-24T00:09:03.496Z,22.70
2023-07-24T00:11:31.446Z,22.70
2023-07-24T00:13:59.365Z,22.80
2023-07-24T00:16:27.406Z,22.70
2023-07-24T00:18:58.283Z,22.70
2023-07-24T00:21:32.463Z,22.70
2023-07-24T00:24:11.039Z,22.60
2023-07-24T00:26:47.140Z,22.70
2023-07-24T00:29:40.060Z,22.70
2023-07-24T00:32:16.964Z,22.70
2023-07-24T00:34:44.890Z,22.60
2023-07-24T00:37:12.807Z,22.60
2023-07-24T00:39:42.088Z,22.60
2023-07-24T00:42:10.071Z,22.50
2023-07-24T00:44:38.772Z,22.50
2023-07-24T00:47:15.282Z,22.50
2023-07-24T00:49:46.333Z,22.50
2023-07-24T00:52:17.356Z,22.60
2023-07-24T00:55:02.181Z,22.60
2023-07-24T00:57:33.287Z,22.60
2023-07-24T01:00:01.916Z,22.60
2023-07-24T01:02:36.406Z,22.50
2023-07-24T01:05:05.118Z,22.40
2023-07-24T01:08:34.108Z,22.50
2023-07-24T01:11:57.145Z,22.50
2023-07-24T01:15:19.886Z,22.50
2023-07-24T01:18:42.774Z,22.40
2023-07-24T01:22:12.890Z,22.50
2023-07-24T01:25:36.286Z,22.40
2023-07-24T01:28:59.944Z,22.30
2023-07-24T01:32:30.581Z,22.30
2023-07-24T01:35:56.135Z,22.30
2023-07-24T01:39:19.007Z,22.20
2023-07-24T01:42:42.098Z,22.10
2023-07-24T01:46:12.286Z,22.00
2023-07-24T01:49:35.586Z,22.00
2023-07-24T01:52:58.696Z,21.90
2023-07-24T01:56:21.689Z,21.90
2023-07-24T01:59:44.624Z,21.80
2023-07-24T02:03:08.260Z,21.70
2023-07-24T02:06:31.406Z,21.60
2023-07-24T02:09:54.646Z,21.40
2023-07-24T02:13:19.548Z,21.30
2023-07-24T02:16:52.000Z,21.20
2023-07-24T02:20:17.328Z,21.20
2023-07-24T02:23:40.408Z,21.10
2023-07-24T02:27:03.586Z,21.10
2023-07-24T02:30:27.069Z,21.00
2023-07-24T02:33:49.999Z,21.00
2023-07-24T02:37:13.061Z,21.00
2023-07-24T02:40:36.163Z,20.90
2023-07-24T02:44:00.053Z,20.90
2023-07-24T02:47:22.967Z,20.90
2023-07-24T02:50:46.994Z,20.90
2023-07-24T02:54:12.737Z,21.00
2023-07-24T02:57:39.024Z,20.90
2023-07-24T03:01:02.391Z,20.90
2023-07-24T03:04:27.372Z,21.00
2023-07-24T03:07:50.219Z,21.10
2023-07-24T03:11:13.426Z,21.00
2023-07-24T03:14:36.654Z,21.00
2023-07-24T03:18:06.722Z,20.90
2023-07-24T03:21:29.950Z,20.80
2023-07-24T03:24:59.101Z,20.70
2023-07-24T03:28:22.136Z,20.70
2023-07-24T03:31:44.990Z,20.60
2023-07-24T03:35:07.775Z,20.80
2023-07-24T03:38:33.518Z,20.90
2023-07-24T03:41:56.295Z,21.00
2023-07-24T03:48:56.026Z,21.30
2023-07-24T03:52:18.976Z,21.30
2023-07-24T03:55:44.840Z,21.30
2023-07-24T03:59:07.750Z,21.40
2023-07-24T04:02:30.656Z,21.50
2023-07-24T04:05:53.464Z,21.60
2023-07-24T04:09:16.584Z,21.70
2023-07-24T04:12:39.659Z,21.60
2023-07-24T04:16:02.465Z,21.60
2023-07-24T04:19:25.344Z,21.40
2023-07-24T04:22:48.395Z,21.60
2023-07-24T04:26:11.102Z,21.60
2023-07-24T04:29:40.150Z,21.60
2023-07-24T04:33:05.339Z,21.60
2023-07-24T04:36:29.179Z,21.60
2023-07-24T04:39:52.501Z,21.60
2023-07-24T04:43:15.584Z,21.70
2023-07-24T04:46:38.641Z,21.60
2023-07-24T04:50:01.482Z,21.70
2023-07-24T04:53:24.761Z,21.70
2023-07-24T04:56:47.853Z,21.70
2023-07-24T05:00:10.706Z,21.70
2023-07-24T05:03:33.759Z,21.70
2023-07-24T05:06:56.852Z,21.70
2023-07-24T05:13:56.953Z,21.80
2023-07-24T05:17:20.217Z,21.60
2023-07-24T05:20:43.230Z,21.50
2023-07-24T05:24:06.265Z,21.60
2023-07-24T05:27:48.700Z,21.60
2023-07-24T05:31:11.625Z,21.80
2023-07-24T05:34:41.787Z,21.90
2023-07-24T05:38:05.457Z,21.90
2023-07-24T05:41:32.004Z,21.90
2023-07-24T05:44:55.076Z,22.00
2023-07-24T05:48:18.303Z,22.00
2023-07-24T05:51:43.553Z,22.00
2023-07-24T05:55:07.060Z,21.90
2023-07-24T05:58:39.271Z,21.90
2023-07-24T06:02:02.103Z,21.80
2023-07-24T06:05:25.142Z,21.60
2023-07-24T06:08:48.038Z,21.60
2023-07-24T06:12:11.150Z,21.50
2023-07-24T06:15:41.417Z,21.50
2023-07-24T06:19:05.149Z,21.60
2023-07-24T06:22:35.475Z,21.70
2023-07-24T06:25:58.603Z,21.80
2023-07-24T06:29:27.776Z,21.90
2023-07-24T06:32:53.000Z,22.00
2023-07-24T06:36:16.350Z,22.20
2023-07-24T06:39:49.539Z,22.40
2023-07-24T06:43:12.350Z,22.40
2023-07-24T06:46:36.195Z,22.60
2023-07-24T06:49:59.026Z,22.60
2023-07-24T06:53:22.175Z,22.70
2023-07-24T06:56:45.002Z,22.70
2023-07-24T07:00:08.055Z,22.50
2023-07-24T07:03:37.757Z,22.40
2023-07-24T07:07:01.202Z,22.40
2023-07-24T07:10:24.073Z,22.40
2023-07-24T07:13:47.295Z,22.50
2023-07-24T07:17:10.548Z,22.60
2023-07-24T07:20:35.659Z,22.60
2023-07-24T07:24:02.270Z,22.70
2023-07-24T07:27:24.975Z,22.70
2023-07-24T07:30:49.277Z,22.70
2023-07-24T07:34:12.262Z,22.70
2023-07-24T07:37:37.384Z,22.70
2023-07-24T07:41:04.226Z,22.70
2023-07-24T07:44:32.300Z,22.70
2023-07-24T07:47:55.418Z,22.70
2023-07-24T07:51:18.530Z,22.70
2023-07-24T07:54:41.360Z,22.60
2023-07-24T07:58:04.288Z,22.70
2023-07-24T08:01:27.277Z,22.70
2023-07-24T08:04:52.239Z,22.80
2023-07-24T08:08:15.099Z,22.80
2023-07-24T08:11:37.939Z,22.60
2023-07-24T08:15:03.432Z,22.60
2023-07-24T08:18:26.358Z,22.70
2023-07-24T08:21:49.278Z,22.80
2023-07-24T08:25:12.094Z,22.80
2023-07-24T08:32:22.519Z,22.80
2023-07-24T08:35:45.916Z,22.90
2023-07-24T08:39:08.905Z,23.00
2023-07-24T08:42:35.157Z,23.00
2023-07-24T08:45:58.154Z,23.00
2023-07-24T08:49:21.130Z,23.00
2023-07-24T08:52:44.065Z,23.00
2023-07-24T08:56:07.451Z,22.90
2023-07-24T08:59:31.284Z,22.90
2023-07-24T09:02:54.195Z,22.90
2023-07-24T09:06:16.942Z,22.90
2023-07-24T09:13:16.718Z,22.90
2023-07-24T09:16:39.879Z,22.70
2023-07-24T09:20:12.281Z,22.70
2023-07-24T09:23:35.611Z,22.50
2023-07-24T09:26:58.952Z,22.60
2023-07-24T09:30:22.174Z,22.90
2023-07-24T09:33:45.309Z,23.00
2023-07-24T09:37:08.313Z,23.10
2023-07-24T09:40:31.251Z,23.10
2023-07-24T09:43:54.354Z,23.10
2023-07-24T09:50:43.676Z,23.20
2023-07-24T09:54:06.819Z,23.30
2023-07-24T09:57:29.772Z,23.30
2023-07-24T10:00:52.773Z,23.40
2023-07-24T10:04:15.641Z,23.40
2023-07-24T10:07:38.825Z,23.40
2023-07-24T10:11:04.915Z,23.40
2023-07-24T10:14:28.154Z,23.50
2023-07-24T10:17:53.513Z,23.50
2023-07-24T10:21:19.717Z,23.50
2023-07-24T10:28:31.351Z,23.40
2023-07-24T10:31:57.681Z,23.40
2023-07-24T10:35:24.366Z,23.40
2023-07-24T10:38:50.449Z,23.50
2023-07-24T10:42:13.752Z,23.60
2023-07-24T10:45:36.675Z,23.60
2023-07-24T10:49:02.748Z,23.60
2023-07-24T10:52:36.604Z,23.50
2023-07-24T10:56:02.000Z,23.40
2023-07-24T10:59:25.259Z,23.50
2023-07-24T11:02:54.242Z,23.50
2023-07-24T11:06:17.488Z,23.60
2023-07-24T11:09:40.705Z,23.60
2023-07-24T11:13:08.808Z,23.50
2023-07-24T11:16:33.436Z,23.50
2023-07-24T11:19:56.393Z,23.50
2023-07-24T11:23:19.270Z,23.40
2023-07-24T11:26:45.123Z,23.50
2023-07-24T11:30:08.373Z,23.50
2023-07-24T11:33:31.398Z,23.60
2023-07-24T11:36:54.428Z,23.60
2023-07-24T11:40:17.316Z,23.70
2023-07-24T11:43:43.273Z,23.60
2023-07-24T11:47:06.286Z,23.50
2023-07-24T11:50:29.420Z,23.40
2023-07-24T11:53:52.414Z,23.40
2023-07-24T11:57:15.153Z,23.40
2023-07-24T12:00:38.468Z,23.50
2023-07-24T12:04:01.669Z,23.40
2023-07-24T12:07:24.767Z,23.40
2023-07-24T12:10:47.729Z,23.30
2023-07-24T12:14:10.731Z,23.30
2023-07-24T12:17:33.792Z,23.50
2023-07-24T12:20:56.784Z,23.50
2023-07-24T12:24:28.781Z,23.40
2023-07-24T12:27:51.715Z,23.00
2023-07-24T12:31:15.464Z,23.10
2023-07-24T12:34:38.525Z,23.00
2023-07-24T12:38:01.544Z,23.00
2023-07-24T12:41:26.617Z,22.30
2023-07-24T12:44:49.443Z,22.60
2023-07-24T12:48:12.667Z,22.10
2023-07-24T12:51:38.810Z,22.10
2023-07-24T12:55:02.851Z,22.40
2023-07-24T12:58:26.048Z,22.70
2023-07-24T13:02:00.414Z,23.10
2023-07-24T13:05:30.837Z,23.00
2023-07-24T13:08:53.837Z,23.00
2023-07-24T13:12:16.811Z,23.10
2023-07-24T13:15:41.466Z,23.10
2023-07-24T13:19:04.395Z,23.10
2023-07-24T13:22:27.540Z,23.30
2023-07-24T13:25:53.547Z,23.30
2023-07-24T13:29:17.447Z,23.40
2023-07-24T13:32:40.390Z,23.50
2023-07-24T13:36:03.265Z,23.50
2023-07-24T13:39:26.208Z,23.60
2023-07-24T13:42:49.204Z,23.50
2023-07-24T13:46:12.122Z,23.50
2023-07-24T13:49:35.196Z,23.40
2023-07-24T13:52:58.102Z,23.50
2023-07-24T13:56:21.492Z,23.50
2023-07-24T13:59:44.570Z,23.60
2023-07-24T14:03:07.705Z,23.60
2023-07-24T14:06:34.016Z,23.70
2023-07-24T14:10:00.522Z,23.60
2023-07-24T14:13:23.522Z,23.60
2023-07-24T14:16:50.583Z,23.70
2023-07-24T14:20:13.355Z,23.70
2023-07-24T14:23:36.282Z,23.60
2023-07-24T14:27:02.336Z,23.60
2023-07-24T14:30:25.416Z,23.60
2023-07-24T14:33:48.372Z,23.60
2023-07-24T14:37:12.525Z,23.60
2023-07-24T14:40:37.679Z,23.70
2023-07-24T14:51:20.168Z,23.80
2023-07-24T14:54:43.134Z,23.90
2023-07-24T14:58:06.072Z,23.90
2023-07-24T15:01:29.903Z,24.00
2023-07-24T15:04:54.828Z,24.00
2023-07-24T15:08:17.631Z,24.00
2023-07-24T15:11:40.519Z,24.00
2023-07-24T15:15:03.630Z,23.90
2023-07-24T15:18:26.657Z,23.80
2023-07-24T15:21:49.489Z,23.70
2023-07-24T15:25:12.339Z,24.00
2023-07-24T15:28:42.682Z,24.00
2023-07-24T15:32:05.567Z,24.00
2023-07-24T15:35:31.594Z,23.90
2023-07-24T15:38:54.793Z,23.70
2023-07-24T15:42:17.840Z,23.60
2023-07-24T15:45:41.602Z,23.50
2023-07-24T15:49:04.693Z,23.70
2023-07-24T15:52:27.749Z,23.80
2023-07-24T15:55:50.689Z,23.90
2023-07-24T15:59:15.561Z,24.10
2023-07-24T16:02:41.661Z,24.30
2023-07-24T16:06:04.691Z,24.40
2023-07-24T16:09:30.869Z,24.50
2023-07-24T16:12:53.902Z,24.50
2023-07-24T16:16:16.613Z,24.50
2023-07-24T16:19:39.654Z,24.40
2023-07-24T16:23:05.610Z,24.40
2023-07-24T16:26:28.906Z,24.40
2023-07-24T16:29:55.922Z,24.20
2023-07-24T16:36:45.624Z,23.90
2023-07-24T16:40:09.843Z,23.90
2023-07-24T16:43:38.794Z,23.80
2023-07-24T16:50:28.579Z,23.80
2023-07-24T16:53:51.489Z,24.00
2023-07-24T16:57:14.233Z,24.00
2023-07-24T17:00:37.074Z,24.00
2023-07-24T17:04:00.019Z,24.00
2023-07-24T17:07:22.939Z,23.90
2023-07-24T17:10:45.844Z,23.80
2023-07-24T17:14:10.980Z,23.90
2023-07-24T17:17:34.672Z,23.70
2023-07-24T17:20:57.669Z,23.70
2023-07-24T17:24:20.803Z,23.80
2023-07-24T17:27:45.890Z,23.80
2023-07-24T17:31:08.901Z,23.80
2023-07-24T17:34:31.815Z,23.70
2023-07-24T17:37:54.762Z,23.60
2023-07-24T17:41:17.974Z,23.70
2023-07-24T17:44:41.031Z,23.70
2023-07-24T17:48:05.291Z,23.80
2023-07-24T17:51:32.129Z,23.80
2023-07-24T17:54:55.652Z,23.70
2023-07-24T17:58:18.542Z,23.80
2023-07-24T18:01:41.345Z,24.00
2023-07-24T18:05:04.541Z,24.00
2023-07-24T18:08:27.669Z,24.00
2023-07-24T18:11:50.655Z,23.90
2023-07-24T18:15:13.643Z,23.90
2023-07-24T18:18:38.837Z,23.90
2023-07-24T18:22:01.808Z,23.90
2023-07-24T18:25:24.825Z,23.80
2023-07-24T18:28:50.928Z,23.70
2023-07-24T18:32:14.279Z,23.60
2023-07-24T18:35:44.861Z,23.60
2023-07-24T18:39:10.111Z,23.50
2023-07-24T18:42:33.098Z,23.60
2023-07-24T18:45:56.312Z,23.50
2023-07-24T18:49:19.451Z,23.50
2023-07-24T18:52:47.966Z,23.60
2023-07-24T18:56:11.160Z,23.40
2023-07-24T18:59:34.107Z,23.20
2023-07-24T19:02:57.011Z,23.30
2023-07-24T19:06:19.830Z,23.50
2023-07-24T19:09:43.066Z,23.40
2023-07-24T19:13:05.747Z,23.40
2023-07-24T19:16:35.784Z,23.60
2023-07-24T19:19:59.153Z,23.50
2023-07-24T19:23:22.303Z,23.50
2023-07-24T19:26:45.130Z,23.40
2023-07-24T19:30:11.377Z,23.20
2023-07-24T19:33:34.348Z,23.00
2023-07-24T19:36:57.857Z,23.20
2023-07-24T19:40:21.131Z,23.20
2023-07-24T19:43:44.025Z,23.00
2023-07-24T19:47:06.902Z,23.10
2023-07-24T19:50:29.784Z,23.30
2023-07-24T19:53:52.616Z,23.20
2023-07-24T19:57:15.652Z,23.20
2023-07-24T20:00:41.893Z,23.10
2023-07-24T20:04:06.752Z,23.00
2023-07-24T20:07:36.866Z,23.00
2023-07-24T20:11:00.741Z,22.90
2023-07-24T20:14:26.370Z,22.80
2023-07-24T20:17:49.254Z,22.80
2023-07-24T20:21:12.355Z,22.70
2023-07-24T20:24:37.342Z,22.70
2023-07-24T20:28:00.737Z,22.70
2023-07-24T20:31:24.832Z,22.60
2023-07-24T20:34:47.617Z,22.70
2023-07-24T20:38:10.594Z,22.60
2023-07-24T20:45:13.627Z,22.60
2023-07-24T20:48:36.617Z,22.60
2023-07-24T20:51:59.485Z,22.70
2023-07-24T20:55:27.620Z,22.70
2023-07-24T20:58:50.426Z,22.80
2023-07-24T21:02:16.338Z,22.90
2023-07-24T21:05:39.838Z,22.90
2023-07-24T21:09:02.828Z,22.90
2023-07-24T21:12:31.973Z,22.80
2023-07-24T21:15:54.883Z,22.70
2023-07-24T21:19:19.089Z,22.70
2023-07-24T21:22:42.101Z,22.70
2023-07-24T21:26:05.174Z,22.70
2023-07-24T21:29:30.102Z,22.60
2023-07-24T21:32:53.357Z,22.50
2023-07-24T21:36:16.781Z,22.40
2023-07-24T21:39:39.683Z,22.40
2023-07-24T21:43:02.807Z,22.40
2023-07-24T21:46:31.947Z,22.40
2023-07-24T21:49:56.975Z,22.30
2023-07-24T21:53:19.783Z,22.20
2023-07-24T21:56:42.677Z,22.10
2023-07-24T22:00:05.400Z,22.20
2023-07-24T22:03:31.305Z,22.20
2023-07-24T22:06:54.379Z,22.20
2023-07-24T22:10:20.848Z,22.20
2023-07-24T22:13:43.939Z,22.30
2023-07-24T22:17:07.011Z,22.40
2023-07-24T22:20:39.205Z,22.50
2023-07-24T22:24:04.488Z,22.40
2023-07-24T22:27:27.873Z,22.40
2023-07-24T22:30:50.801Z,22.20
2023-07-24T22:34:15.878Z,22.10
2023-07-24T22:37:38.924Z,22.00
2023-07-24T22:41:02.058Z,22.00
2023-07-24T22:44:25.042Z,22.00
2023-07-24T22:47:55.440Z,21.90
2023-07-24T22:51:18.384Z,22.00
2023-07-24T22:54:41.217Z,21.90
2023-07-24T22:58:05.885Z,21.90
2023-07-24T23:01:29.168Z,21.90
2023-07-24T23:05:01.160Z,21.90
2023-07-24T23:08:24.410Z,21.80
2023-07-24T23:11:47.907Z,21.70
2023-07-24T23:15:11.001Z,21.70
2023-07-24T23:18:34.179Z,21.60
2023-07-24T23:21:57.100Z,21.50
2023-07-24T23:25:20.359Z,21.50
2023-07-24T23:28:43.268Z,21.40
2023-07-24T23:32:06.238Z,21.40
2023-07-24T23:35:29.087Z,21.30
2023-07-24T23:38:51.946Z,21.20
2023-07-24T23:42:14.853Z,21.20
2023-07-24T23:45:37.868Z,21.00
2023-07-24T23:49:03.881Z,21.00
2023-07-24T23:52:26.807Z,21.00
2023-07-24T23:55:49.560Z,21.00
2023-07-24T23:59:14.608Z,21.00
